Time;durP1;ratioP1;P1;durP2;ratioP2;P2;SDS_P1;SDS_P2;PMS_P1;PMS_P2;Temp;Humidity;BMP_temperature;BMP_pressure;BME280_temperature;BME280_humidity;BME280_pressure;Samples;Min_cycle;Max_cycle;Signal;HPM_P1;HPM_P2
2022/07/14 00:01:23;;;;;;;2.35;2.15;;;20.20;57.90;;;;;;652423;219;26529;-65
2022/07/14 00:03:51;;;;;;;2.40;2.17;;;20.20;58.00;;;;;;652499;219;26513;-65
2022/07/14 00:06:19;;;;;;;2.50;2.30;;;20.10;58.20;;;;;;652455;219;26466;-66
2022/07/14 00:08:46;;;;;;;2.30;2.20;;;20.10;58.10;;;;;;652441;219;26459;-66
2022/07/14 00:11:14;;;;;;;2.17;1.98;;;20.00;58.30;;;;;;652377;219;26522;-66
2022/07/14 00:13:41;;;;;;;2.10;1.90;;;20.00;58.50;;;;;;652523;219;26832;-66
2022/07/14 00:16:08;;;;;;;2.33;2.08;;;19.90;58.70;;;;;;652449;220;26497;-66
2022/07/14 00:18:43;;;;;;;2.22;2.08;;;19.90;58.90;;;;;;652438;220;26746;-66
2022/07/14 00:21:02;;;;;;;2.42;1.92;;;19.80;59.00;;;;;;651927;220;26501;-66
2022/07/14 00:23:30;;;;;;;2.22;2.05;;;19.70;59.30;;;;;;652604;219;26496;-66
2022/07/14 00:25:58;;;;;;;2.72;2.30;;;19.70;59.50;;;;;;652529;219;26517;-66
2022/07/14 00:28:26;;;;;;;2.42;2.22;;;19.60;59.40;;;;;;652527;219;26482;-67
2022/07/14 00:30:53;;;;;;;2.40;2.20;;;19.60;59.60;;;;;;653659;218;26548;-67
2022/07/14 00:33:20;;;;;;;2.05;1.95;;;19.50;59.90;;;;;;653969;219;26789;-66
2022/07/14 00:35:47;;;;;;;2.72;2.33;;;19.50;60.10;;;;;;653600;219;26536;-66
2022/07/14 00:38:14;;;;;;;2.40;2.20;;;19.50;60.50;;;;;;653472;219;26843;-66
2022/07/14 00:40:42;;;;;;;2.47;2.33;;;19.40;60.90;;;;;;653101;219;26470;-66
2022/07/14 00:43:09;;;;;;;1.92;1.83;;;19.40;61.20;;;;;;653134;219;26723;-66
2022/07/14 00:45:36;;;;;;;2.10;2.00;;;19.30;61.50;;;;;;653161;219;26511;-64
2022/07/14 00:48:03;;;;;;;2.10;2.00;;;19.30;61.90;;;;;;653032;219;26743;-65
2022/07/14 00:50:31;;;;;;;2.30;2.10;;;19.20;62.40;;;;;;652793;219;26556;-64
2022/07/14 00:52:59;;;;;;;2.45;1.85;;;19.10;62.10;;;;;;652683;219;26560;-65
2022/07/14 00:55:26;;;;;;;2.67;2.25;;;19.10;62.10;;;;;;651993;220;26568;-65
2022/07/14 00:57:54;;;;;;;2.53;2.28;;;19.10;62.00;;;;;;652811;219;26540;-65
2022/07/14 01:00:22;;;;;;;2.25;1.92;;;19.10;62.20;;;;;;652783;219;26875;-65
2022/07/14 01:02:49;;;;;;;2.40;2.20;;;19.10;62.30;;;;;;652700;219;26773;-65
2022/07/14 01:05:17;;;;;;;2.00;1.90;;;19.00;62.40;;;;;;652787;219;26781;-66
2022/07/14 01:07:43;;;;;;;2.83;2.08;;;19.00;62.70;;;;;;652424;219;26505;-65
2022/07/14 01:10:11;;;;;;;2.30;2.20;;;18.90;63.40;;;;;;652444;219;26707;-65
2022/07/14 01:12:38;;;;;;;2.42;2.22;;;18.90;63.70;;;;;;652409;219;26774;-65
2022/07/14 01:15:06;;;;;;;2.10;1.98;;;18.80;63.60;;;;;;652471;219;26501;-65
2022/07/14 01:17:33;;;;;;;2.33;2.12;;;18.80;63.60;;;;;;652486;219;26493;-65
2022/07/14 01:20:01;;;;;;;1.73;1.62;;;18.70;63.90;;;;;;652443;220;26499;-65
2022/07/14 01:22:28;;;;;;;2.35;2.17;;;18.70;64.60;;;;;;652359;220;26517;-65
2022/07/14 01:24:55;;;;;;;2.10;1.90;;;18.70;64.90;;;;;;652397;220;26734;-65
2022/07/14 01:27:22;;;;;;;1.83;1.73;;;18.60;65.20;;;;;;652456;220;26498;-65
2022/07/14 01:29:49;;;;;;;2.40;2.17;;;18.60;64.20;;;;;;652428;220;26772;-65
2022/07/14 01:32:17;;;;;;;2.35;1.90;;;18.60;64.10;;;;;;652238;219;26537;-65
2022/07/14 01:34:44;;;;;;;2.08;1.87;;;18.50;63.30;;;;;;652259;219;26729;-65
2022/07/14 01:37:11;;;;;;;1.90;1.80;;;18.50;62.40;;;;;;652346;219;26465;-65
2022/07/14 01:39:40;;;;;;;1.83;1.73;;;18.40;62.70;;;;;;652183;220;26518;-65
2022/07/14 01:42:08;;;;;;;2.47;2.08;;;18.30;63.30;;;;;;653222;218;26524;-65
2022/07/14 01:44:35;;;;;;;2.08;1.87;;;18.30;63.30;;;;;;653998;219;26484;-65
2022/07/14 01:47:02;;;;;;;3.90;1.95;;;18.30;63.50;;;;;;653625;219;26778;-65
2022/07/14 01:49:29;;;;;;;1.92;1.75;;;18.30;63.50;;;;;;653536;219;26786;-65
2022/07/14 01:51:56;;;;;;;1.95;1.85;;;18.20;63.40;;;;;;653222;219;26518;-65
2022/07/14 01:54:25;;;;;;;1.92;1.83;;;18.20;63.30;;;;;;653135;219;26714;-65
2022/07/14 01:59:26;;;;;;;2.58;2.00;;;18.10;63.70;;;;;;634515;222;35183;-63
2022/07/14 02:01:53;;;;;;;2.30;1.90;;;18.00;63.70;;;;;;618875;230;26608;-63
2022/07/14 02:04:21;;;;;;;1.87;1.77;;;17.90;64.30;;;;;;613434;234;26802;-63
2022/07/14 02:06:52;;;;;;;1.92;1.83;;;17.90;64.30;;;;;;613251;234;26820;-65
2022/07/14 02:09:19;;;;;;;2.78;1.90;;;17.80;64.40;;;;;;613075;235;26663;-64
2022/07/14 02:14:20;;;;;;;1.70;1.60;;;17.70;65.00;;;;;;613119;234;26648;-64
2022/07/14 02:16:48;;;;;;;1.80;1.70;;;17.60;65.60;;;;;;612849;234;26615;-64
2022/07/14 02:19:15;;;;;;;1.67;1.60;;;17.60;65.60;;;;;;612774;235;26679;-64
2022/07/14 02:21:42;;;;;;;1.92;1.65;;;17.50;65.50;;;;;;612748;234;26648;-64
2022/07/14 02:24:09;;;;;;;3.37;1.70;;;17.50;65.60;;;;;;612819;234;26862;-64
2022/07/14 02:26:37;;;;;;;3.55;2.00;;;17.50;65.80;;;;;;612809;234;26665;-64
2022/07/14 02:29:05;;;;;;;1.70;1.60;;;17.40;66.10;;;;;;612825;230;26865;-64
2022/07/14 02:31:33;;;;;;;1.70;1.37;;;17.30;66.20;;;;;;612531;230;26673;-64
2022/07/14 02:34:00;;;;;;;1.90;1.50;;;17.30;66.30;;;;;;612638;234;26820;-64
2022/07/14 02:36:27;;;;;;;1.85;1.75;;;17.20;66.70;;;;;;612523;234;26567;-64
2022/07/14 02:38:54;;;;;;;1.92;1.60;;;17.10;66.70;;;;;;612497;234;26859;-64
2022/07/14 02:41:22;;;;;;;1.73;1.62;;;17.00;67.20;;;;;;612478;234;26604;-64
2022/07/14 02:43:50;;;;;;;1.67;1.50;;;17.00;67.60;;;;;;612572;235;26587;-64
2022/07/14 02:46:18;;;;;;;1.70;1.52;;;16.90;68.10;;;;;;612573;235;26603;-64
2022/07/14 02:48:47;;;;;;;2.00;1.80;;;16.80;68.30;;;;;;612551;235;26592;-64
2022/07/14 02:51:15;;;;;;;3.08;1.50;;;16.80;68.30;;;;;;612414;235;26854;-64
2022/07/14 02:53:41;;;;;;;1.87;1.60;;;16.80;68.70;;;;;;612492;234;26813;-64
2022/07/14 02:56:08;;;;;;;2.40;1.52;;;16.70;69.10;;;;;;612576;235;26835;-64
2022/07/14 02:58:36;;;;;;;2.87;1.67;;;16.70;69.50;;;;;;612642;234;26596;-64
2022/07/14 03:01:06;;;;;;;1.67;1.42;;;16.60;69.90;;;;;;612523;235;26853;-64
2022/07/14 03:03:34;;;;;;;2.25;1.70;;;16.50;70.10;;;;;;612604;230;26667;-64
2022/07/14 03:06:07;;;;;;;2.03;1.55;;;16.40;70.60;;;;;;612583;234;26580;-64
2022/07/14 03:08:34;;;;;;;1.40;1.30;;;16.40;71.20;;;;;;612714;232;26533;-64
2022/07/14 03:11:02;;;;;;;2.50;1.50;;;16.30;71.50;;;;;;614023;234;26868;-64
2022/07/14 03:13:29;;;;;;;1.58;1.48;;;16.30;72.10;;;;;;613608;234;26840;-64
2022/07/14 03:15:56;;;;;;;1.75;1.60;;;16.30;71.60;;;;;;613305;234;26584;-64
2022/07/14 03:18:24;;;;;;;2.08;1.70;;;16.30;72.00;;;;;;613160;234;26578;-64
2022/07/14 03:20:51;;;;;;;1.83;1.52;;;16.30;72.00;;;;;;612980;235;26620;-64
2022/07/14 03:23:19;;;;;;;2.12;1.40;;;16.30;72.20;;;;;;613060;235;26631;-64
2022/07/14 03:25:47;;;;;;;1.52;1.33;;;16.30;72.10;;;;;;613054;234;26698;-64
2022/07/14 03:28:15;;;;;;;1.90;1.65;;;16.30;72.20;;;;;;612765;234;26588;-64
2022/07/14 03:30:42;;;;;;;3.17;1.48;;;16.30;72.10;;;;;;612716;234;26947;-64
2022/07/14 03:33:10;;;;;;;2.87;1.58;;;16.30;72.20;;;;;;612764;234;26583;-64
2022/07/14 03:35:37;;;;;;;1.98;1.33;;;16.10;72.50;;;;;;612759;234;26888;-64
2022/07/14 03:38:04;;;;;;;2.37;1.50;;;16.10;72.90;;;;;;612718;235;26588;-64
2022/07/14 03:40:31;;;;;;;3.35;2.10;;;16.00;73.10;;;;;;612738;235;26828;-64
2022/07/14 03:43:00;;;;;;;2.90;1.50;;;16.00;73.70;;;;;;612691;230;26639;-64
2022/07/14 03:45:26;;;;;;;2.33;1.58;;;16.00;73.60;;;;;;612480;235;27231;-64
2022/07/14 03:47:53;;;;;;;2.22;1.58;;;16.00;73.90;;;;;;612465;235;26648;-64
2022/07/14 03:50:20;;;;;;;2.78;1.50;;;15.80;74.90;;;;;;612405;235;26890;-64
2022/07/14 03:52:48;;;;;;;3.95;1.50;;;15.70;74.60;;;;;;612397;235;26669;-64
2022/07/14 03:55:16;;;;;;;2.30;1.45;;;15.70;75.30;;;;;;612463;235;26629;-64
2022/07/14 03:57:44;;;;;;;2.28;1.15;;;15.60;75.30;;;;;;612422;234;26695;-64
2022/07/14 04:00:12;;;;;;;2.53;1.30;;;15.60;75.70;;;;;;612426;235;26638;-64
2022/07/14 04:02:39;;;;;;;1.77;1.10;;;15.60;75.70;;;;;;612383;234;26920;-64
2022/07/14 04:05:07;;;;;;;1.58;1.45;;;15.70;75.90;;;;;;612469;235;26631;-65
2022/07/14 04:07:35;;;;;;;3.15;1.40;;;15.60;75.90;;;;;;612472;235;26847;-64
2022/07/14 04:10:03;;;;;;;3.30;1.87;;;15.50;76.60;;;;;;612388;235;26627;-64
2022/07/14 04:12:31;;;;;;;4.97;1.67;;;15.50;77.00;;;;;;612390;234;26869;-65
2022/07/14 04:14:58;;;;;;;1.98;1.30;;;15.50;77.00;;;;;;612468;235;26868;-65
2022/07/14 04:17:25;;;;;;;2.72;1.67;;;15.50;77.50;;;;;;612508;235;26571;-65
2022/07/14 04:19:52;;;;;;;3.75;1.75;;;15.40;77.70;;;;;;612447;235;26639;-65
2022/07/14 04:22:20;;;;;;;2.50;1.42;;;15.40;78.60;;;;;;614066;232;26620;-65
2022/07/14 04:24:48;;;;;;;4.43;1.62;;;15.40;78.30;;;;;;613638;234;26590;-65
2022/07/14 04:27:16;;;;;;;3.25;1.42;;;15.40;78.40;;;;;;613286;234;26599;-65
2022/07/14 04:29:44;;;;;;;3.42;1.75;;;15.40;79.00;;;;;;613173;234;26554;-65
2022/07/14 04:32:12;;;;;;;4.15;1.45;;;15.30;78.80;;;;;;612969;235;26708;-65
2022/07/14 04:34:38;;;;;;;2.58;1.60;;;15.40;78.60;;;;;;613083;235;26633;-65
2022/07/14 04:39:29;;;;;;;2.58;1.37;;;15.50;78.40;;;;;;634549;226;35464;-65
2022/07/14 04:41:56;;;;;;;3.20;1.58;;;15.50;78.30;;;;;;618647;230;26620;-66
2022/07/14 04:44:23;;;;;;;2.35;1.35;;;15.60;78.00;;;;;;613425;234;26844;-66
2022/07/14 04:46:50;;;;;;;2.15;1.30;;;15.50;78.40;;;;;;613313;234;26550;-64
2022/07/14 04:54:23;;;;;;;2.12;1.20;;;15.70;77.70;;;;;;613115;234;26628;-64
2022/07/14 04:56:50;;;;;;;4.12;1.62;;;15.80;77.70;;;;;;601127;235;26577;-64
2022/07/14 04:59:17;;;;;;;2.15;1.40;;;16.00;76.60;;;;;;612844;235;26881;-64
2022/07/14 05:01:45;;;;;;;3.37;1.40;;;16.00;76.10;;;;;;612742;234;26659;-65
2022/07/14 05:04:12;;;;;;;3.33;1.50;;;16.10;76.00;;;;;;612749;235;27318;-64
2022/07/14 05:06:39;;;;;;;3.83;1.73;;;16.10;75.70;;;;;;612807;234;26855;-65
2022/07/14 05:09:06;;;;;;;4.30;1.62;;;16.20;75.40;;;;;;612767;234;26865;-65
2022/07/14 05:11:33;;;;;;;1.92;1.48;;;16.10;75.30;;;;;;612716;233;26651;-65
2022/07/14 05:14:01;;;;;;;2.47;1.30;;;16.10;75.30;;;;;;612624;234;26865;-65
2022/07/14 05:16:28;;;;;;;2.62;1.50;;;16.10;75.80;;;;;;612513;235;26579;-65
2022/07/14 05:18:55;;;;;;;3.15;1.60;;;16.20;75.60;;;;;;612493;234;26655;-65
2022/07/14 05:21:23;;;;;;;3.25;1.37;;;16.40;74.40;;;;;;612426;234;26649;-65
2022/07/14 05:23:51;;;;;;;2.80;1.27;;;16.30;74.40;;;;;;612511;235;26594;-65
2022/07/14 05:26:19;;;;;;;3.25;1.60;;;16.30;73.90;;;;;;612495;234;26593;-66
2022/07/14 05:28:47;;;;;;;4.62;1.77;;;16.30;74.80;;;;;;612483;234;26639;-65
2022/07/14 05:31:14;;;;;;;5.20;1.60;;;16.30;74.30;;;;;;612287;234;26901;-65
2022/07/14 05:33:41;;;;;;;2.80;1.50;;;16.40;74.70;;;;;;612509;234;26645;-66
2022/07/14 05:36:09;;;;;;;3.50;1.65;;;16.40;74.10;;;;;;612511;234;26830;-65
2022/07/14 05:38:36;;;;;;;4.05;1.48;;;16.40;74.10;;;;;;612470;234;26719;-65
2022/07/14 05:41:03;;;;;;;4.07;1.52;;;16.50;73.80;;;;;;612443;234;26870;-65
2022/07/14 05:43:31;;;;;;;2.78;1.42;;;16.50;73.70;;;;;;612567;234;26584;-65
2022/07/14 05:46:06;;;;;;;4.80;1.77;;;16.60;73.80;;;;;;612470;234;26900;-65
2022/07/14 05:48:33;;;;;;;4.45;1.80;;;16.80;73.10;;;;;;612598;232;26585;-65
2022/07/14 05:51:05;;;;;;;3.55;1.75;;;16.80;72.50;;;;;;613992;233;26752;-65
2022/07/14 05:53:33;;;;;;;2.95;1.45;;;16.80;71.80;;;;;;613517;234;26590;-65
2022/07/14 05:55:59;;;;;;;3.25;1.70;;;16.60;72.30;;;;;;613301;234;26808;-65
2022/07/14 05:58:27;;;;;;;2.85;1.50;;;16.40;73.40;;;;;;613172;234;26587;-65
2022/07/14 06:00:54;;;;;;;3.60;1.58;;;16.60;73.20;;;;;;612919;235;26926;-64
2022/07/14 06:03:21;;;;;;;3.95;1.40;;;16.90;71.80;;;;;;613121;234;26630;-65
2022/07/14 06:05:48;;;;;;;3.08;1.15;;;16.90;71.10;;;;;;613146;234;26633;-65
2022/07/14 06:08:16;;;;;;;2.03;1.40;;;17.40;70.40;;;;;;612907;235;26597;-65
2022/07/14 06:10:44;;;;;;;3.72;1.60;;;17.60;69.30;;;;;;612652;235;26597;-64
2022/07/14 06:13:12;;;;;;;1.55;1.17;;;17.50;69.20;;;;;;612726;234;26634;-64
2022/07/14 06:15:39;;;;;;;1.70;1.25;;;17.90;68.50;;;;;;612659;234;26868;-65
2022/07/14 06:18:07;;;;;;;3.10;1.42;;;18.10;66.80;;;;;;612774;234;26583;-65
2022/07/14 06:20:34;;;;;;;3.22;1.42;;;18.30;66.00;;;;;;612621;234;26600;-65
2022/07/14 06:23:02;;;;;;;5.60;1.60;;;18.40;65.40;;;;;;612788;234;26687;-66
2022/07/14 06:25:30;;;;;;;4.62;1.48;;;18.40;65.10;;;;;;612631;235;26579;-66
2022/07/14 06:27:58;;;;;;;6.05;1.60;;;18.50;64.80;;;;;;612527;234;26572;-65
2022/07/14 06:30:26;;;;;;;3.47;1.62;;;18.70;63.40;;;;;;612477;235;26632;-65
2022/07/14 06:32:53;;;;;;;4.00;1.40;;;18.70;63.20;;;;;;612396;235;26939;-65
2022/07/14 06:35:21;;;;;;;4.72;1.58;;;18.60;63.00;;;;;;612453;234;26628;-65
2022/07/14 06:37:48;;;;;;;3.75;1.58;;;18.40;62.90;;;;;;612453;234;26982;-65
2022/07/14 06:40:15;;;;;;;5.32;1.60;;;18.20;62.90;;;;;;612403;234;26667;-65
2022/07/14 06:42:42;;;;;;;4.30;1.50;;;18.10;63.10;;;;;;612360;235;26680;-65
2022/07/14 06:45:10;;;;;;;3.20;1.60;;;18.00;63.00;;;;;;612425;235;26821;-65
2022/07/14 06:47:37;;;;;;;3.28;1.37;;;17.70;63.00;;;;;;612486;235;26636;-65
2022/07/14 06:50:05;;;;;;;3.90;1.20;;;17.80;61.60;;;;;;612426;235;26639;-65
2022/07/14 06:52:32;;;;;;;3.10;1.73;;;17.80;61.90;;;;;;612326;234;26704;-65
2022/07/14 06:54:59;;;;;;;4.10;1.60;;;17.80;62.10;;;;;;612453;234;26846;-65
2022/07/14 06:57:26;;;;;;;4.22;1.67;;;17.70;62.80;;;;;;612484;234;26624;-65
2022/07/14 06:59:54;;;;;;;2.37;1.27;;;17.70;62.30;;;;;;612414;235;26860;-66
2022/07/14 07:02:21;;;;;;;2.97;1.30;;;17.80;61.60;;;;;;614022;232;26667;-65
2022/07/14 07:06:43;;;;;;;3.25;1.80;;;18.00;60.80;;;;;;613555;234;26831;-65
2022/07/14 07:07:15;;;;;;;3.42;1.33;;;18.40;59.70;;;;;;611324;234;26586;-66
2022/07/14 07:09:42;;;;;;;2.92;1.20;;;18.50;58.90;;;;;;613203;230;26847;-66
2022/07/14 07:12:10;;;;;;;3.17;1.55;;;18.60;58.50;;;;;;612984;234;26652;-65
2022/07/14 07:14:38;;;;;;;3.08;1.08;;;18.70;57.30;;;;;;613075;234;26625;-65
2022/07/14 07:17:05;;;;;;;4.35;1.48;;;18.40;57.20;;;;;;610882;235;26637;-66
2022/07/14 07:19:33;;;;;;;3.03;1.52;;;18.50;55.70;;;;;;603663;235;26597;-66
2022/07/14 07:22:01;;;;;;;2.97;1.50;;;18.40;55.40;;;;;;604080;237;26594;-66
2022/07/14 07:24:29;;;;;;;3.20;1.50;;;18.40;56.30;;;;;;602859;238;26608;-66
2022/07/14 07:26:56;;;;;;;3.20;1.30;;;18.40;55.90;;;;;;601739;238;26561;-66
2022/07/14 07:29:23;;;;;;;3.15;1.37;;;18.50;55.50;;;;;;604218;237;26573;-66
2022/07/14 07:31:50;;;;;;;2.87;1.23;;;18.60;55.20;;;;;;603113;236;26607;-66
2022/07/14 07:34:17;;;;;;;5.70;1.23;;;18.60;55.60;;;;;;607153;236;26884;-74
2022/07/14 07:36:45;;;;;;;2.30;1.55;;;18.70;54.90;;;;;;602533;237;26838;-74
2022/07/14 07:39:13;;;;;;;4.35;1.83;;;18.70;54.90;;;;;;603680;238;26594;-74
2022/07/14 07:41:40;;;;;;;2.78;1.40;;;18.90;54.40;;;;;;608527;235;26577;-74
2022/07/14 07:44:08;;;;;;;5.30;1.40;;;19.10;54.80;;;;;;602298;238;26644;-75
2022/07/14 07:46:36;;;;;;;3.60;1.50;;;19.10;54.90;;;;;;603043;237;26581;-74
2022/07/14 07:49:06;;;;;;;4.05;1.40;;;19.20;54.70;;;;;;603485;237;26603;-73
2022/07/14 07:51:32;;;;;;;2.62;1.20;;;19.50;54.60;;;;;;608548;236;26622;-74
2022/07/14 07:54:00;;;;;;;4.32;1.40;;;19.30;53.20;;;;;;601491;237;26628;-74
2022/07/14 07:56:28;;;;;;;4.85;1.27;;;19.30;53.10;;;;;;601510;237;26635;-75
2022/07/14 07:58:56;;;;;;;3.35;1.37;;;19.00;51.90;;;;;;603309;237;26570;-74
2022/07/14 08:01:24;;;;;;;4.20;1.35;;;18.80;52.00;;;;;;602006;238;26669;-75
2022/07/14 08:03:51;;;;;;;4.72;1.27;;;18.80;52.00;;;;;;604531;238;26574;-75
2022/07/14 08:06:19;;;;;;;4.25;1.30;;;19.00;52.20;;;;;;603467;238;26585;-74
2022/07/14 08:08:46;;;;;;;5.93;1.60;;;19.00;52.40;;;;;;603110;237;26819;-74
2022/07/14 08:11:13;;;;;;;4.85;1.75;;;19.00;51.70;;;;;;602250;237;26659;-75
2022/07/14 08:13:40;;;;;;;3.45;1.48;;;19.00;52.50;;;;;;610443;233;26866;-76
2022/07/14 08:16:08;;;;;;;4.18;1.75;;;19.20;52.40;;;;;;603506;237;26574;-76
2022/07/14 08:18:35;;;;;;;2.60;1.23;;;19.30;50.70;;;;;;606651;231;26640;-75
2022/07/14 08:21:03;;;;;;;1.77;0.90;;;19.30;51.30;;;;;;610600;235;26643;-75
2022/07/14 08:23:32;;;;;;;2.58;1.15;;;19.50;50.60;;;;;;603516;235;26577;-74
2022/07/14 08:25:59;;;;;;;3.10;1.33;;;19.50;50.60;;;;;;612364;235;26657;-75
2022/07/14 08:28:26;;;;;;;4.82;1.23;;;19.70;50.90;;;;;;608245;235;26586;-71
2022/07/14 08:30:53;;;;;;;3.47;1.42;;;19.60;50.90;;;;;;604889;238;26821;-73
2022/07/14 08:33:20;;;;;;;2.28;0.90;;;19.70;50.30;;;;;;602435;237;26594;-75
2022/07/14 08:35:48;;;;;;;3.30;1.37;;;19.50;49.90;;;;;;602183;237;26843;-73
2022/07/14 08:38:15;;;;;;;7.93;1.37;;;19.20;50.50;;;;;;603866;237;26574;-75
2022/07/14 08:40:42;;;;;;;4.12;1.40;;;19.30;50.40;;;;;;603308;238;26780;-75
2022/07/14 08:43:09;;;;;;;2.87;1.27;;;19.50;49.10;;;;;;608605;236;26605;-75
2022/07/14 08:45:37;;;;;;;4.62;1.25;;;19.30;48.30;;;;;;605889;235;26586;-75
2022/07/14 08:48:04;;;;;;;2.67;1.10;;;19.30;48.30;;;;;;610422;235;26558;-76
2022/07/14 08:50:32;;;;;;;2.50;1.08;;;19.30;49.10;;;;;;603225;232;26620;-77
2022/07/14 08:53:00;;;;;;;3.35;1.35;;;19.20;48.90;;;;;;603381;237;26925;-75
2022/07/14 08:55:27;;;;;;;3.25;1.05;;;19.50;49.30;;;;;;602083;238;26650;-75
2022/07/14 08:57:54;;;;;;;2.87;1.40;;;19.30;48.70;;;;;;602088;238;26848;-76
2022/07/14 09:00:21;;;;;;;2.78;1.15;;;19.50;49.30;;;;;;606507;236;26584;-76
2022/07/14 09:02:49;;;;;;;3.90;0.93;;;19.60;49.40;;;;;;605037;235;26900;-76
2022/07/14 09:05:16;;;;;;;1.33;1.17;;;19.70;48.30;;;;;;601427;239;26877;-76
2022/07/14 09:07:44;;;;;;;2.12;1.05;;;19.80;47.70;;;;;;609383;236;26622;-76
2022/07/14 09:10:12;;;;;;;4.07;1.10;;;19.70;46.80;;;;;;607277;236;26918;-76
2022/07/14 09:12:39;;;;;;;3.55;1.30;;;19.70;46.20;;;;;;602817;238;26645;-73
2022/07/14 09:17:56;;;;;;;5.25;1.37;;;19.70;48.10;;;;;;604979;236;26849;-76
2022/07/14 09:20:23;;;;;;;125.35;23.52;;;19.80;47.30;;;;;;605756;236;26833;-77
2022/07/14 09:22:53;;;;;;;157.12;31.58;;;19.80;46.50;;;;;;601411;239;26666;-73
2022/07/14 09:25:20;;;;;;;128.50;27.58;;;19.60;47.00;;;;;;602311;237;26857;-75
2022/07/14 09:27:48;;;;;;;120.95;25.98;;;19.80;47.20;;;;;;609516;235;26585;-76
2022/07/14 09:30:15;;;;;;;33.60;10.52;;;19.80;46.80;;;;;;605103;235;26633;-73
2022/07/14 09:32:43;;;;;;;88.95;18.17;;;19.90;45.90;;;;;;606223;235;26656;-73
2022/07/14 09:35:11;;;;;;;62.28;16.35;;;19.90;45.80;;;;;;601995;237;26585;-73
2022/07/14 09:37:39;;;;;;;63.15;15.68;;;20.00;45.20;;;;;;604081;237;26617;-69
2022/07/14 09:40:11;;;;;;;52.85;12.73;;;20.20;45.60;;;;;;604769;238;26659;-70
2022/07/14 09:42:50;;;;;;;36.08;10.90;;;20.20;45.60;;;;;;604687;237;26665;-70
2022/07/14 09:45:17;;;;;;;42.15;10.43;;;20.20;45.20;;;;;;604730;238;26594;-70
2022/07/14 09:47:52;;;;;;;28.35;7.47;;;20.20;44.80;;;;;;604570;237;26845;-70
2022/07/14 09:50:39;;;;;;;5.43;2.58;;;20.20;44.80;;;;;;604628;238;26598;-70
2022/07/14 09:53:28;;;;;;;14.38;3.60;;;20.30;45.80;;;;;;602773;235;26598;-70
2022/07/14 09:55:56;;;;;;;5.80;2.40;;;20.40;44.90;;;;;;601038;239;26834;-70
2022/07/14 09:58:24;;;;;;;7.75;1.90;;;20.50;45.40;;;;;;601529;239;26579;-70
2022/07/14 10:00:57;;;;;;;5.62;2.25;;;20.30;44.10;;;;;;601502;237;26589;-68
2022/07/14 10:03:28;;;;;;;5.87;1.83;;;20.70;44.70;;;;;;600672;239;26688;-70
2022/07/14 10:05:55;;;;;;;5.28;1.90;;;20.60;44.80;;;;;;601586;237;26634;-68
2022/07/14 10:08:23;;;;;;;8.32;2.03;;;20.60;43.70;;;;;;601540;239;26641;-70
2022/07/14 10:10:51;;;;;;;6.50;1.85;;;20.60;43.80;;;;;;601472;239;26629;-68
2022/07/14 10:13:19;;;;;;;5.03;1.73;;;20.70;43.60;;;;;;601583;237;26688;-70
2022/07/14 10:15:49;;;;;;;6.75;2.00;;;20.60;40.80;;;;;;601566;237;26640;-70
2022/07/14 10:18:16;;;;;;;4.72;1.85;;;20.60;40.80;;;;;;601532;232;26858;-68
2022/07/14 10:20:45;;;;;;;3.87;1.87;;;20.70;42.00;;;;;;601564;239;26617;-68
2022/07/14 10:23:12;;;;;;;6.62;2.00;;;20.70;41.50;;;;;;601569;237;26609;-69
2022/07/14 10:25:39;;;;;;;3.78;1.55;;;20.90;41.80;;;;;;601573;237;26869;-69
2022/07/14 10:28:06;;;;;;;5.85;1.73;;;21.00;42.10;;;;;;601562;237;26626;-69
2022/07/14 10:30:36;;;;;;;2.60;1.10;;;21.20;42.10;;;;;;601555;236;27183;-69
2022/07/14 10:33:05;;;;;;;2.72;1.45;;;21.10;42.30;;;;;;601344;237;26654;-69
2022/07/14 10:35:40;;;;;;;3.50;1.70;;;21.10;42.20;;;;;;601921;237;26629;-69
2022/07/14 10:38:26;;;;;;;3.10;1.30;;;21.20;42.00;;;;;;602004;238;26886;-69
2022/07/14 10:41:06;;;;;;;6.25;1.70;;;21.30;41.90;;;;;;599900;238;26662;-69
2022/07/14 10:43:40;;;;;;;6.60;1.83;;;21.20;41.80;;;;;;602356;239;26585;-69
2022/07/14 10:46:07;;;;;;;2.47;1.10;;;21.30;40.80;;;;;;601635;239;26930;-69
2022/07/14 10:48:34;;;;;;;6.03;1.40;;;21.40;41.80;;;;;;602029;237;26581;-69
2022/07/14 10:51:17;;;;;;;1.90;0.95;;;21.50;41.70;;;;;;602021;237;26904;-69
2022/07/14 10:53:56;;;;;;;2.47;1.30;;;21.60;41.50;;;;;;601700;239;26590;-69
2022/07/14 10:56:26;;;;;;;5.12;1.20;;;21.60;41.40;;;;;;601842;237;26830;-69
2022/07/14 10:59:05;;;;;;;3.08;1.40;;;21.40;40.90;;;;;;601877;237;26582;-69
2022/07/14 11:01:32;;;;;;;3.25;1.23;;;21.40;41.30;;;;;;601734;237;26630;-69
2022/07/14 11:04:00;;;;;;;3.28;1.50;;;21.40;40.80;;;;;;601848;239;26850;-69
2022/07/14 11:06:27;;;;;;;4.35;1.30;;;21.60;42.20;;;;;;601748;232;26578;-69
2022/07/14 11:09:01;;;;;;;2.22;1.48;;;21.60;41.10;;;;;;601799;237;26822;-69
2022/07/14 11:11:29;;;;;;;5.18;1.58;;;21.60;41.50;;;;;;600121;239;26622;-69
2022/07/14 11:14:04;;;;;;;6.10;1.62;;;21.70;41.40;;;;;;601535;237;26854;-69
2022/07/14 11:17:01;;;;;;;1.75;1.12;;;21.80;41.10;;;;;;601418;239;26849;-69
2022/07/14 11:19:31;;;;;;;3.92;1.45;;;21.90;41.00;;;;;;601531;237;26665;-69
2022/07/14 11:22:12;;;;;;;2.65;1.05;;;21.70;41.20;;;;;;601195;239;26666;-70
2022/07/14 11:24:49;;;;;;;1.92;1.00;;;21.80;41.30;;;;;;600893;233;26921;-69
2022/07/14 11:27:37;;;;;;;2.72;0.95;;;21.90;41.50;;;;;;601536;237;26884;-69
2022/07/14 11:30:15;;;;;;;1.42;1.00;;;22.10;42.20;;;;;;599742;238;26866;-69
2022/07/14 11:32:43;;;;;;;1.67;1.15;;;22.40;41.50;;;;;;601250;239;26645;-69
2022/07/14 11:37:57;;;;;;;1.35;0.82;;;22.50;41.20;;;;;;601570;237;26638;-69
2022/07/14 11:40:36;;;;;;;0.77;0.77;;;22.50;41.20;;;;;;601449;237;26677;-69
2022/07/14 11:43:15;;;;;;;3.15;1.23;;;22.50;41.10;;;;;;601525;239;26688;-69
2022/07/14 11:45:58;;;;;;;1.67;1.05;;;22.40;40.10;;;;;;601538;239;26625;-69
2022/07/14 11:48:28;;;;;;;2.12;1.05;;;22.30;39.90;;;;;;603484;234;26577;-70
2022/07/14 11:51:02;;;;;;;1.90;1.12;;;22.30;39.90;;;;;;603792;235;27160;-73
2022/07/14 11:56:16;;;;;;;5.82;1.65;;;22.40;39.00;;;;;;604530;234;26627;-73
2022/07/14 11:58:44;;;;;;;8.55;2.03;;;22.50;38.70;;;;;;604722;235;26635;-71
2022/07/14 12:01:13;;;;;;;6.37;1.90;;;22.60;39.20;;;;;;602603;237;26647;-71
2022/07/14 12:03:41;;;;;;;9.10;2.00;;;22.70;39.70;;;;;;606764;235;26603;-72
2022/07/14 12:06:08;;;;;;;7.60;2.50;;;22.70;38.80;;;;;;607030;235;26595;-72
2022/07/14 12:08:39;;;;;;;5.97;1.70;;;22.70;38.40;;;;;;601803;238;26604;-71
2022/07/14 12:11:08;;;;;;;5.55;2.00;;;22.70;38.40;;;;;;604055;238;26858;-73
2022/07/14 12:13:47;;;;;;;5.47;1.83;;;22.80;38.20;;;;;;601743;237;26589;-74
2022/07/14 12:16:14;;;;;;;4.53;1.15;;;22.80;37.80;;;;;;601776;236;26903;-73
2022/07/14 12:18:42;;;;;;;9.20;1.75;;;23.00;38.20;;;;;;601802;233;26624;-70
2022/07/14 12:21:09;;;;;;;4.05;1.65;;;23.20;37.10;;;;;;601703;237;26871;-70
2022/07/14 12:23:36;;;;;;;2.33;1.33;;;23.40;37.50;;;;;;601628;237;26585;-70
2022/07/14 12:26:04;;;;;;;5.10;1.50;;;23.60;37.60;;;;;;603738;236;26655;-73
2022/07/14 12:28:31;;;;;;;5.03;1.20;;;23.90;37.80;;;;;;601453;239;27293;-72
2022/07/14 12:30:58;;;;;;;2.90;1.20;;;23.90;37.00;;;;;;610443;235;26658;-73
2022/07/14 12:33:25;;;;;;;2.65;1.00;;;24.10;36.90;;;;;;601489;237;26862;-72
2022/07/14 12:35:54;;;;;;;3.30;1.00;;;24.40;36.80;;;;;;603104;238;26589;-71
2022/07/14 12:38:22;;;;;;;1.65;0.93;;;24.60;36.00;;;;;;609879;235;26661;-72
2022/07/14 12:40:50;;;;;;;3.83;0.82;;;24.50;36.10;;;;;;605631;234;26583;-73
2022/07/14 12:43:17;;;;;;;1.50;0.82;;;24.50;36.00;;;;;;606920;235;27297;-69
2022/07/14 12:45:56;;;;;;;3.10;1.10;;;24.70;36.10;;;;;;601564;237;26625;-69
2022/07/14 12:48:24;;;;;;;4.68;1.15;;;25.30;36.00;;;;;;601549;237;26641;-69
2022/07/14 12:50:52;;;;;;;3.05;1.15;;;26.00;36.60;;;;;;610466;233;26647;-71
2022/07/14 12:53:19;;;;;;;2.40;1.05;;;25.90;36.20;;;;;;603164;233;27300;-70
2022/07/14 12:55:46;;;;;;;2.33;0.98;;;26.40;36.60;;;;;;603097;237;26593;-69
2022/07/14 12:58:13;;;;;;;1.55;1.00;;;26.60;34.80;;;;;;601738;237;26869;-73
2022/07/14 13:00:41;;;;;;;4.03;0.95;;;26.80;35.90;;;;;;603799;235;26551;-72
2022/07/14 13:03:10;;;;;;;3.33;0.77;;;27.20;33.60;;;;;;604853;237;26890;-71
2022/07/14 13:05:38;;;;;;;1.10;0.73;;;27.30;33.70;;;;;;602338;238;26795;-72
2022/07/14 13:08:17;;;;;;;1.60;0.70;;;27.60;33.60;;;;;;601902;238;27000;-70
2022/07/14 13:10:52;;;;;;;1.23;0.82;;;28.10;32.90;;;;;;602506;236;26829;-70
2022/07/14 13:13:20;;;;;;;2.87;1.08;;;28.50;32.60;;;;;;608045;236;26590;-72